sensor_id;sensor_type;location;lat;lon;timestamp;P1;durP1;ratioP1;P2;durP2;ratioP2
52614;SDS011;38508;53.158;6.614;2022-12-18T00:02:15;104.15;;;27.77;;
52614;SDS011;38508;53.158;6.614;2022-12-18T00:04:41;100.78;;;28.63;;
52614;SDS011;38508;53.158;6.614;2022-12-18T00:07:06;106.57;;;28.33;;
52614;SDS011;38508;53.158;6.614;2022-12-18T00:09:32;101.97;;;27.58;;
52614;SDS011;38508;53.158;6.614;2022-12-18T00:11:58;111.25;;;29.25;;
52614;SDS011;38508;53.158;6.614;2022-12-18T00:14:24;107.20;;;28.42;;
52614;SDS011;38508;53.158;6.614;2022-12-18T00:16:49;96.82;;;27.83;;
52614;SDS011;38508;53.158;6.614;2022-12-18T00:19:15;93.75;;;28.05;;
52614;SDS011;38508;53.158;6.614;2022-12-18T00:21:41;103.25;;;28.90;;
52614;SDS011;38508;53.158;6.614;2022-12-18T00:24:08;99.70;;;28.38;;
52614;SDS011;38508;53.158;6.614;2022-12-18T00:26:35;92.78;;;27.40;;
52614;SDS011;38508;53.158;6.614;2022-12-18T00:29:06;109.43;;;28.42;;
52614;SDS011;38508;53.158;6.614;2022-12-18T00:31:35;106.28;;;29.08;;
52614;SDS011;38508;53.158;6.614;2022-12-18T00:34:02;110.00;;;28.75;;
52614;SDS011;38508;53.158;6.614;2022-12-18T00:36:32;102.43;;;27.98;;
52614;SDS011;38508;53.158;6.614;2022-12-18T00:39:00;103.65;;;27.95;;
52614;SDS011;38508;53.158;6.614;2022-12-18T00:41:27;110.82;;;30.05;;
52614;SDS011;38508;53.158;6.614;2022-12-18T00:44:13;104.57;;;27.05;;
52614;SDS011;38508;53.158;6.614;2022-12-18T00:46:41;97.07;;;28.08;;
52614;SDS011;38508;53.158;6.614;2022-12-18T00:49:07;102.13;;;28.05;;
52614;SDS011;38508;53.158;6.614;2022-12-18T00:51:33;107.07;;;28.08;;
52614;SDS011;38508;53.158;6.614;2022-12-18T00:53:59;107.60;;;30.20;;
52614;SDS011;38508;53.158;6.614;2022-12-18T00:56:25;115.88;;;32.70;;
52614;SDS011;38508;53.158;6.614;2022-12-18T00:58:51;106.05;;;30.95;;
52614;SDS011;38508;53.158;6.614;2022-12-18T01:01:17;96.90;;;28.50;;
52614;SDS011;38508;53.158;6.614;2022-12-18T01:03:42;101.25;;;28.00;;
52614;SDS011;38508;53.158;6.614;2022-12-18T01:06:11;91.05;;;27.13;;
52614;SDS011;38508;53.158;6.614;2022-12-18T01:08:37;99.32;;;27.05;;
52614;SDS011;38508;53.158;6.614;2022-12-18T01:11:14;96.72;;;28.63;;
52614;SDS011;38508;53.158;6.614;2022-12-18T01:13:45;96.03;;;28.33;;
52614;SDS011;38508;53.158;6.614;2022-12-18T01:16:12;90.50;;;26.10;;
52614;SDS011;38508;53.158;6.614;2022-12-18T01:18:39;97.10;;;25.98;;
52614;SDS011;38508;53.158;6.614;2022-12-18T01:21:08;99.82;;;27.52;;
52614;SDS011;38508;53.158;6.614;2022-12-18T01:23:37;107.95;;;29.38;;
52614;SDS011;38508;53.158;6.614;2022-12-18T01:26:09;91.15;;;26.98;;
52614;SDS011;38508;53.158;6.614;2022-12-18T01:28:38;104.85;;;28.15;;
52614;SDS011;38508;53.158;6.614;2022-12-18T01:31:11;100.80;;;26.20;;
52614;SDS011;38508;53.158;6.614;2022-12-18T01:33:42;101.07;;;27.52;;
52614;SDS011;38508;53.158;6.614;2022-12-18T01:36:14;103.00;;;28.08;;
52614;SDS011;38508;53.158;6.614;2022-12-18T01:38:44;92.18;;;28.05;;
52614;SDS011;38508;53.158;6.614;2022-12-18T01:41:11;98.78;;;28.27;;
52614;SDS011;38508;53.158;6.614;2022-12-18T01:43:41;110.72;;;28.55;;
52614;SDS011;38508;53.158;6.614;2022-12-18T01:46:17;95.63;;;27.42;;
52614;SDS011;38508;53.158;6.614;2022-12-18T01:48:44;103.97;;;28.50;;
52614;SDS011;38508;53.158;6.614;2022-12-18T01:51:12;100.30;;;26.85;;
52614;SDS011;38508;53.158;6.614;2022-12-18T01:53:39;101.85;;;29.13;;
52614;SDS011;38508;53.158;6.614;2022-12-18T01:56:06;100.28;;;26.63;;
52614;SDS011;38508;53.158;6.614;2022-12-18T01:58:39;97.82;;;26.88;;
52614;SDS011;38508;53.158;6.614;2022-12-18T02:01:22;93.28;;;26.80;;
52614;SDS011;38508;53.158;6.614;2022-12-18T02:03:49;109.53;;;27.95;;
52614;SDS011;38508;53.158;6.614;2022-12-18T02:06:27;92.32;;;27.25;;
52614;SDS011;38508;53.158;6.614;2022-12-18T02:11:44;97.97;;;27.73;;
52614;SDS011;38508;53.158;6.614;2022-12-18T02:16:58;101.20;;;27.63;;
52614;SDS011;38508;53.158;6.614;2022-12-18T02:27:31;94.93;;;25.63;;
52614;SDS011;38508;53.158;6.614;2022-12-18T02:29:59;93.20;;;26.35;;
52614;SDS011;38508;53.158;6.614;2022-12-18T02:32:29;106.00;;;28.10;;
52614;SDS011;38508;53.158;6.614;2022-12-18T02:34:59;94.90;;;26.35;;
52614;SDS011;38508;53.158;6.614;2022-12-18T02:37:27;94.35;;;26.38;;
52614;SDS011;38508;53.158;6.614;2022-12-18T02:39:54;96.50;;;26.85;;
52614;SDS011;38508;53.158;6.614;2022-12-18T02:42:22;102.43;;;27.02;;
52614;SDS011;38508;53.158;6.614;2022-12-18T02:44:49;101.13;;;28.92;;
52614;SDS011;38508;53.158;6.614;2022-12-18T02:47:17;99.07;;;27.05;;
52614;SDS011;38508;53.158;6.614;2022-12-18T02:49:57;103.45;;;27.85;;
52614;SDS011;38508;53.158;6.614;2022-12-18T02:52:45;110.25;;;28.52;;
52614;SDS011;38508;53.158;6.614;2022-12-18T03:03:35;112.80;;;30.08;;
52614;SDS011;38508;53.158;6.614;2022-12-18T03:06:10;96.72;;;27.13;;
52614;SDS011;38508;53.158;6.614;2022-12-18T03:08:46;101.97;;;28.38;;
52614;SDS011;38508;53.158;6.614;2022-12-18T03:11:16;101.78;;;27.83;;
52614;SDS011;38508;53.158;6.614;2022-12-18T03:14:01;109.27;;;30.47;;
52614;SDS011;38508;53.158;6.614;2022-12-18T03:16:29;91.10;;;28.27;;
52614;SDS011;38508;53.158;6.614;2022-12-18T03:18:59;102.15;;;29.85;;
52614;SDS011;38508;53.158;6.614;2022-12-18T03:21:29;99.18;;;29.05;;
52614;SDS011;38508;53.158;6.614;2022-12-18T03:24:04;98.18;;;30.65;;
52614;SDS011;38508;53.158;6.614;2022-12-18T03:26:32;110.03;;;30.73;;
52614;SDS011;38508;53.158;6.614;2022-12-18T03:29:02;101.68;;;30.50;;
52614;SDS011;38508;53.158;6.614;2022-12-18T03:31:32;97.63;;;28.02;;
52614;SDS011;38508;53.158;6.614;2022-12-18T03:34:03;98.80;;;28.02;;
52614;SDS011;38508;53.158;6.614;2022-12-18T03:36:33;88.13;;;25.67;;
52614;SDS011;38508;53.158;6.614;2022-12-18T03:38:59;98.30;;;29.00;;
52614;SDS011;38508;53.158;6.614;2022-12-18T03:41:32;100.53;;;28.38;;
52614;SDS011;38508;53.158;6.614;2022-12-18T03:47:27;101.40;;;27.52;;
52614;SDS011;38508;53.158;6.614;2022-12-18T03:52:26;97.07;;;27.70;;
52614;SDS011;38508;53.158;6.614;2022-12-18T03:55:01;94.63;;;27.83;;
52614;SDS011;38508;53.158;6.614;2022-12-18T03:57:28;100.82;;;28.08;;
52614;SDS011;38508;53.158;6.614;2022-12-18T04:00:07;94.20;;;28.70;;
52614;SDS011;38508;53.158;6.614;2022-12-18T04:02:35;98.63;;;28.00;;
52614;SDS011;38508;53.158;6.614;2022-12-18T04:05:05;102.20;;;26.45;;
52614;SDS011;38508;53.158;6.614;2022-12-18T04:07:33;99.10;;;27.83;;
52614;SDS011;38508;53.158;6.614;2022-12-18T04:10:00;92.70;;;26.20;;
52614;SDS011;38508;53.158;6.614;2022-12-18T04:12:29;102.70;;;28.33;;
52614;SDS011;38508;53.158;6.614;2022-12-18T04:14:55;87.50;;;25.63;;
52614;SDS011;38508;53.158;6.614;2022-12-18T04:17:21;94.47;;;27.58;;
52614;SDS011;38508;53.158;6.614;2022-12-18T04:19:47;93.53;;;26.75;;
52614;SDS011;38508;53.158;6.614;2022-12-18T04:22:13;84.80;;;26.48;;
52614;SDS011;38508;53.158;6.614;2022-12-18T04:24:39;83.45;;;25.27;;
52614;SDS011;38508;53.158;6.614;2022-12-18T04:27:04;97.88;;;27.00;;
52614;SDS011;38508;53.158;6.614;2022-12-18T04:29:30;88.15;;;27.02;;
52614;SDS011;38508;53.158;6.614;2022-12-18T04:31:56;98.05;;;28.13;;
52614;SDS011;38508;53.158;6.614;2022-12-18T04:34:22;92.18;;;26.23;;
52614;SDS011;38508;53.158;6.614;2022-12-18T04:36:47;93.18;;;26.38;;
52614;SDS011;38508;53.158;6.614;2022-12-18T04:39:13;88.10;;;24.80;;
52614;SDS011;38508;53.158;6.614;2022-12-18T04:41:44;77.50;;;23.50;;
52614;SDS011;38508;53.158;6.614;2022-12-18T04:44:09;87.32;;;25.60;;
52614;SDS011;38508;53.158;6.614;2022-12-18T04:46:35;83.07;;;27.67;;
52614;SDS011;38508;53.158;6.614;2022-12-18T04:49:01;97.45;;;25.63;;
52614;SDS011;38508;53.158;6.614;2022-12-18T04:51:26;92.35;;;26.02;;
52614;SDS011;38508;53.158;6.614;2022-12-18T04:53:53;81.45;;;26.13;;
52614;SDS011;38508;53.158;6.614;2022-12-18T04:56:18;81.53;;;23.63;;
52614;SDS011;38508;53.158;6.614;2022-12-18T04:58:44;85.38;;;26.00;;
52614;SDS011;38508;53.158;6.614;2022-12-18T05:01:11;98.25;;;26.80;;
52614;SDS011;38508;53.158;6.614;2022-12-18T05:03:38;83.75;;;24.55;;
52614;SDS011;38508;53.158;6.614;2022-12-18T05:06:04;78.85;;;25.77;;
52614;SDS011;38508;53.158;6.614;2022-12-18T05:08:31;79.93;;;22.98;;
52614;SDS011;38508;53.158;6.614;2022-12-18T05:11:01;85.78;;;25.08;;
52614;SDS011;38508;53.158;6.614;2022-12-18T05:13:32;85.15;;;23.88;;
52614;SDS011;38508;53.158;6.614;2022-12-18T05:15:58;80.63;;;23.48;;
52614;SDS011;38508;53.158;6.614;2022-12-18T05:18:24;82.47;;;24.20;;
52614;SDS011;38508;53.158;6.614;2022-12-18T05:20:51;76.40;;;22.88;;
52614;SDS011;38508;53.158;6.614;2022-12-18T05:23:18;88.05;;;24.95;;
52614;SDS011;38508;53.158;6.614;2022-12-18T05:25:51;74.43;;;22.85;;
52614;SDS011;38508;53.158;6.614;2022-12-18T05:28:22;85.68;;;25.45;;
52614;SDS011;38508;53.158;6.614;2022-12-18T05:30:52;80.35;;;24.27;;
52614;SDS011;38508;53.158;6.614;2022-12-18T05:33:19;73.82;;;22.42;;
52614;SDS011;38508;53.158;6.614;2022-12-18T05:35:55;68.00;;;21.33;;
52614;SDS011;38508;53.158;6.614;2022-12-18T05:38:23;69.10;;;21.88;;
52614;SDS011;38508;53.158;6.614;2022-12-18T05:40:50;69.07;;;20.92;;
52614;SDS011;38508;53.158;6.614;2022-12-18T05:43:17;69.55;;;22.27;;
52614;SDS011;38508;53.158;6.614;2022-12-18T05:45:44;76.18;;;22.63;;
52614;SDS011;38508;53.158;6.614;2022-12-18T05:48:10;66.55;;;21.67;;
52614;SDS011;38508;53.158;6.614;2022-12-18T05:50:36;77.05;;;21.90;;
52614;SDS011;38508;53.158;6.614;2022-12-18T05:53:03;65.15;;;21.25;;
52614;SDS011;38508;53.158;6.614;2022-12-18T05:55:36;68.85;;;22.05;;
52614;SDS011;38508;53.158;6.614;2022-12-18T05:58:03;58.42;;;20.30;;
52614;SDS011;38508;53.158;6.614;2022-12-18T06:00:30;67.95;;;21.80;;
52614;SDS011;38508;53.158;6.614;2022-12-18T06:02:57;72.50;;;21.52;;
52614;SDS011;38508;53.158;6.614;2022-12-18T06:05:24;60.47;;;21.05;;
52614;SDS011;38508;53.158;6.614;2022-12-18T06:07:50;70.72;;;21.35;;
52614;SDS011;38508;53.158;6.614;2022-12-18T06:10:16;62.97;;;20.38;;
52614;SDS011;38508;53.158;6.614;2022-12-18T06:12:41;54.90;;;19.20;;
52614;SDS011;38508;53.158;6.614;2022-12-18T06:15:07;62.60;;;19.50;;
52614;SDS011;38508;53.158;6.614;2022-12-18T06:17:33;57.85;;;19.42;;
52614;SDS011;38508;53.158;6.614;2022-12-18T06:19:59;62.63;;;20.35;;
52614;SDS011;38508;53.158;6.614;2022-12-18T06:22:26;61.53;;;19.63;;
52614;SDS011;38508;53.158;6.614;2022-12-18T06:24:52;70.22;;;21.77;;
52614;SDS011;38508;53.158;6.614;2022-12-18T06:27:17;55.72;;;19.63;;
52614;SDS011;38508;53.158;6.614;2022-12-18T06:29:43;60.30;;;19.08;;
52614;SDS011;38508;53.158;6.614;2022-12-18T06:32:09;57.53;;;21.63;;
52614;SDS011;38508;53.158;6.614;2022-12-18T06:34:36;60.15;;;19.77;;
52614;SDS011;38508;53.158;6.614;2022-12-18T06:37:02;59.15;;;19.65;;
52614;SDS011;38508;53.158;6.614;2022-12-18T06:39:28;57.83;;;20.40;;
52614;SDS011;38508;53.158;6.614;2022-12-18T06:41:54;48.80;;;18.30;;
52614;SDS011;38508;53.158;6.614;2022-12-18T06:44:20;58.13;;;17.85;;
52614;SDS011;38508;53.158;6.614;2022-12-18T06:46:45;56.63;;;18.30;;
52614;SDS011;38508;53.158;6.614;2022-12-18T06:49:11;53.80;;;18.67;;
52614;SDS011;38508;53.158;6.614;2022-12-18T06:51:37;48.88;;;18.88;;
52614;SDS011;38508;53.158;6.614;2022-12-18T06:54:03;53.30;;;19.02;;
52614;SDS011;38508;53.158;6.614;2022-12-18T06:56:29;48.85;;;18.40;;
52614;SDS011;38508;53.158;6.614;2022-12-18T06:58:55;56.03;;;20.15;;
52614;SDS011;38508;53.158;6.614;2022-12-18T07:01:21;53.35;;;17.67;;
52614;SDS011;38508;53.158;6.614;2022-12-18T07:03:47;50.10;;;17.67;;
52614;SDS011;38508;53.158;6.614;2022-12-18T07:06:18;51.28;;;18.92;;
52614;SDS011;38508;53.158;6.614;2022-12-18T07:08:46;55.88;;;18.63;;
52614;SDS011;38508;53.158;6.614;2022-12-18T07:11:13;53.97;;;19.33;;
52614;SDS011;38508;53.158;6.614;2022-12-18T07:13:39;45.33;;;17.13;;
52614;SDS011;38508;53.158;6.614;2022-12-18T07:16:08;54.40;;;17.33;;
52614;SDS011;38508;53.158;6.614;2022-12-18T07:18:36;46.63;;;17.55;;
52614;SDS011;38508;53.158;6.614;2022-12-18T07:21:02;50.00;;;17.45;;
52614;SDS011;38508;53.158;6.614;2022-12-18T07:23:29;53.78;;;17.77;;
52614;SDS011;38508;53.158;6.614;2022-12-18T07:26:00;51.60;;;19.08;;
52614;SDS011;38508;53.158;6.614;2022-12-18T07:28:27;44.22;;;16.10;;
52614;SDS011;38508;53.158;6.614;2022-12-18T07:30:53;43.33;;;16.85;;
52614;SDS011;38508;53.158;6.614;2022-12-18T07:33:19;41.53;;;15.25;;
52614;SDS011;38508;53.158;6.614;2022-12-18T07:35:44;42.92;;;16.13;;
52614;SDS011;38508;53.158;6.614;2022-12-18T07:38:10;42.88;;;16.63;;
52614;SDS011;38508;53.158;6.614;2022-12-18T07:40:36;44.35;;;16.02;;
52614;SDS011;38508;53.158;6.614;2022-12-18T07:43:01;45.05;;;16.73;;
52614;SDS011;38508;53.158;6.614;2022-12-18T07:45:27;50.40;;;16.77;;
52614;SDS011;38508;53.158;6.614;2022-12-18T07:47:55;42.83;;;15.93;;
52614;SDS011;38508;53.158;6.614;2022-12-18T07:50:21;45.50;;;16.75;;
52614;SDS011;38508;53.158;6.614;2022-12-18T07:52:47;44.60;;;16.48;;
52614;SDS011;38508;53.158;6.614;2022-12-18T07:55:12;50.67;;;16.30;;
52614;SDS011;38508;53.158;6.614;2022-12-18T07:57:38;38.22;;;15.63;;
52614;SDS011;38508;53.158;6.614;2022-12-18T08:00:04;43.03;;;16.15;;
52614;SDS011;38508;53.158;6.614;2022-12-18T08:02:31;39.92;;;15.15;;
52614;SDS011;38508;53.158;6.614;2022-12-18T08:04:56;37.05;;;15.00;;
52614;SDS011;38508;53.158;6.614;2022-12-18T08:07:23;45.08;;;16.77;;
52614;SDS011;38508;53.158;6.614;2022-12-18T08:09:48;40.05;;;15.02;;
52614;SDS011;38508;53.158;6.614;2022-12-18T08:12:14;45.03;;;17.45;;
52614;SDS011;38508;53.158;6.614;2022-12-18T08:14:39;41.45;;;15.70;;
52614;SDS011;38508;53.158;6.614;2022-12-18T08:17:05;46.00;;;18.10;;
52614;SDS011;38508;53.158;6.614;2022-12-18T08:19:31;46.95;;;17.05;;
52614;SDS011;38508;53.158;6.614;2022-12-18T08:21:56;41.00;;;15.30;;
52614;SDS011;38508;53.158;6.614;2022-12-18T08:24:22;43.67;;;16.52;;
52614;SDS011;38508;53.158;6.614;2022-12-18T08:26:48;38.83;;;15.18;;
52614;SDS011;38508;53.158;6.614;2022-12-18T08:29:13;42.03;;;16.60;;
52614;SDS011;38508;53.158;6.614;2022-12-18T08:31:39;43.80;;;16.10;;
52614;SDS011;38508;53.158;6.614;2022-12-18T08:34:05;49.50;;;18.25;;
52614;SDS011;38508;53.158;6.614;2022-12-18T08:36:30;46.30;;;16.33;;
52614;SDS011;38508;53.158;6.614;2022-12-18T08:38:56;44.50;;;17.15;;
52614;SDS011;38508;53.158;6.614;2022-12-18T08:41:22;42.67;;;16.92;;
52614;SDS011;38508;53.158;6.614;2022-12-18T08:43:48;47.88;;;17.00;;
52614;SDS011;38508;53.158;6.614;2022-12-18T08:46:39;44.85;;;17.38;;
52614;SDS011;38508;53.158;6.614;2022-12-18T08:49:06;44.42;;;16.67;;
52614;SDS011;38508;53.158;6.614;2022-12-18T08:51:33;42.03;;;16.73;;
52614;SDS011;38508;53.158;6.614;2022-12-18T08:53:59;43.15;;;16.98;;
52614;SDS011;38508;53.158;6.614;2022-12-18T08:56:25;41.03;;;17.48;;
52614;SDS011;38508;53.158;6.614;2022-12-18T08:58:52;44.60;;;15.95;;
52614;SDS011;38508;53.158;6.614;2022-12-18T09:01:18;41.05;;;16.10;;
52614;SDS011;38508;53.158;6.614;2022-12-18T09:03:45;37.83;;;15.70;;
52614;SDS011;38508;53.158;6.614;2022-12-18T09:06:13;43.97;;;16.50;;
52614;SDS011;38508;53.158;6.614;2022-12-18T09:08:40;40.47;;;15.27;;
52614;SDS011;38508;53.158;6.614;2022-12-18T09:11:11;40.85;;;15.55;;
52614;SDS011;38508;53.158;6.614;2022-12-18T09:13:39;38.35;;;16.17;;
52614;SDS011;38508;53.158;6.614;2022-12-18T09:16:05;38.15;;;16.80;;
52614;SDS011;38508;53.158;6.614;2022-12-18T09:18:31;40.97;;;16.40;;
52614;SDS011;38508;53.158;6.614;2022-12-18T09:20:56;40.72;;;16.50;;
52614;SDS011;38508;53.158;6.614;2022-12-18T09:23:22;39.30;;;15.50;;
52614;SDS011;38508;53.158;6.614;2022-12-18T09:25:48;37.83;;;15.52;;
52614;SDS011;38508;53.158;6.614;2022-12-18T09:28:14;36.70;;;14.48;;
52614;SDS011;38508;53.158;6.614;2022-12-18T09:30:43;36.47;;;14.38;;
52614;SDS011;38508;53.158;6.614;2022-12-18T09:33:11;36.08;;;15.52;;
52614;SDS011;38508;53.158;6.614;2022-12-18T09:35:37;37.28;;;14.68;;
52614;SDS011;38508;53.158;6.614;2022-12-18T09:38:03;32.25;;;14.20;;
52614;SDS011;38508;53.158;6.614;2022-12-18T09:40:33;34.78;;;13.85;;
52614;SDS011;38508;53.158;6.614;2022-12-18T09:43:03;36.83;;;15.50;;
52614;SDS011;38508;53.158;6.614;2022-12-18T09:45:31;34.25;;;14.35;;
52614;SDS011;38508;53.158;6.614;2022-12-18T09:48:25;38.33;;;13.82;;
52614;SDS011;38508;53.158;6.614;2022-12-18T09:51:02;36.10;;;14.60;;
52614;SDS011;38508;53.158;6.614;2022-12-18T09:53:35;31.10;;;13.00;;
52614;SDS011;38508;53.158;6.614;2022-12-18T09:56:05;32.83;;;13.68;;
52614;SDS011;38508;53.158;6.614;2022-12-18T09:58:36;32.25;;;12.98;;
52614;SDS011;38508;53.158;6.614;2022-12-18T10:01:13;28.13;;;12.35;;
52614;SDS011;38508;53.158;6.614;2022-12-18T10:03:43;28.10;;;11.60;;
52614;SDS011;38508;53.158;6.614;2022-12-18T10:06:11;26.77;;;11.68;;
52614;SDS011;38508;53.158;6.614;2022-12-18T10:11:32;30.00;;;12.75;;
52614;SDS011;38508;53.158;6.614;2022-12-18T10:24:37;23.33;;;10.32;;
52614;SDS011;38508;53.158;6.614;2022-12-18T10:27:12;29.08;;;11.65;;
52614;SDS011;38508;53.158;6.614;2022-12-18T10:29:40;26.17;;;10.55;;
52614;SDS011;38508;53.158;6.614;2022-12-18T10:32:09;21.23;;;10.20;;
52614;SDS011;38508;53.158;6.614;2022-12-18T10:34:46;23.13;;;10.75;;
52614;SDS011;38508;53.158;6.614;2022-12-18T10:37:15;23.20;;;10.85;;
52614;SDS011;38508;53.158;6.614;2022-12-18T10:39:43;22.08;;;10.95;;
52614;SDS011;38508;53.158;6.614;2022-12-18T10:42:11;19.30;;;8.88;;
52614;SDS011;38508;53.158;6.614;2022-12-18T10:44:44;23.30;;;9.48;;
52614;SDS011;38508;53.158;6.614;2022-12-18T10:47:19;20.13;;;9.68;;
52614;SDS011;38508;53.158;6.614;2022-12-18T10:49:50;18.95;;;9.25;;
52614;SDS011;38508;53.158;6.614;2022-12-18T10:52:18;17.17;;;8.45;;
52614;SDS011;38508;53.158;6.614;2022-12-18T10:54:54;18.98;;;9.02;;
52614;SDS011;38508;53.158;6.614;2022-12-18T10:59:52;16.48;;;7.93;;
52614;SDS011;38508;53.158;6.614;2022-12-18T11:02:27;14.95;;;8.68;;
52614;SDS011;38508;53.158;6.614;2022-12-18T11:04:59;16.23;;;8.70;;
52614;SDS011;38508;53.158;6.614;2022-12-18T11:07:26;15.98;;;8.25;;
52614;SDS011;38508;53.158;6.614;2022-12-18T11:10:18;19.63;;;7.88;;
52614;SDS011;38508;53.158;6.614;2022-12-18T11:12:50;19.52;;;8.80;;
52614;SDS011;38508;53.158;6.614;2022-12-18T11:15:20;21.00;;;8.63;;
52614;SDS011;38508;53.158;6.614;2022-12-18T11:17:50;18.23;;;8.52;;
52614;SDS011;38508;53.158;6.614;2022-12-18T11:20:30;18.02;;;8.30;;
52614;SDS011;38508;53.158;6.614;2022-12-18T11:23:20;14.85;;;7.65;;
52614;SDS011;38508;53.158;6.614;2022-12-18T11:25:57;15.70;;;7.85;;
52614;SDS011;38508;53.158;6.614;2022-12-18T11:36:36;16.27;;;7.78;;
52614;SDS011;38508;53.158;6.614;2022-12-18T11:39:12;17.92;;;8.32;;
52614;SDS011;38508;53.158;6.614;2022-12-18T11:50:52;15.65;;;7.30;;
52614;SDS011;38508;53.158;6.614;2022-12-18T11:53:11;13.52;;;6.38;;
52614;SDS011;38508;53.158;6.614;2022-12-18T12:06:51;16.42;;;6.80;;
52614;SDS011;38508;53.158;6.614;2022-12-18T12:14:52;16.42;;;7.47;;
52614;SDS011;38508;53.158;6.614;2022-12-18T12:17:39;13.25;;;7.00;;
52614;SDS011;38508;53.158;6.614;2022-12-18T12:20:15;14.95;;;8.05;;
52614;SDS011;38508;53.158;6.614;2022-12-18T12:23:04;14.82;;;6.47;;
52614;SDS011;38508;53.158;6.614;2022-12-18T12:25:40;15.60;;;6.85;;
52614;SDS011;38508;53.158;6.614;2022-12-18T12:33:26;12.38;;;6.45;;
52614;SDS011;38508;53.158;6.614;2022-12-18T12:39:07;13.50;;;6.97;;
52614;SDS011;38508;53.158;6.614;2022-12-18T12:41:38;11.98;;;5.85;;
52614;SDS011;38508;53.158;6.614;2022-12-18T12:44:26;12.70;;;6.20;;
52614;SDS011;38508;53.158;6.614;2022-12-18T12:46:56;14.57;;;6.00;;
52614;SDS011;38508;53.158;6.614;2022-12-18T12:49:29;14.05;;;6.57;;
52614;SDS011;38508;53.158;6.614;2022-12-18T12:51:59;12.68;;;5.90;;
52614;SDS011;38508;53.158;6.614;2022-12-18T12:54:31;11.25;;;5.75;;
52614;SDS011;38508;53.158;6.614;2022-12-18T12:59:42;14.00;;;6.78;;
52614;SDS011;38508;53.158;6.614;2022-12-18T13:05:08;12.52;;;5.57;;
52614;SDS011;38508;53.158;6.614;2022-12-18T13:07:54;10.98;;;5.65;;
52614;SDS011;38508;53.158;6.614;2022-12-18T13:18:23;13.70;;;6.05;;
52614;SDS011;38508;53.158;6.614;2022-12-18T13:33:39;14.10;;;6.53;;
52614;SDS011;38508;53.158;6.614;2022-12-18T13:38:38;12.57;;;6.25;;
52614;SDS011;38508;53.158;6.614;2022-12-18T13:43:33;11.45;;;5.80;;
52614;SDS011;38508;53.158;6.614;2022-12-18T13:51:26;14.32;;;6.40;;
52614;SDS011;38508;53.158;6.614;2022-12-18T13:53:54;12.40;;;6.10;;
52614;SDS011;38508;53.158;6.614;2022-12-18T13:56:28;13.43;;;6.45;;
52614;SDS011;38508;53.158;6.614;2022-12-18T13:59:06;11.65;;;5.60;;
52614;SDS011;38508;53.158;6.614;2022-12-18T14:01:50;11.38;;;6.03;;
52614;SDS011;38508;53.158;6.614;2022-12-18T14:04:26;11.77;;;6.55;;
52614;SDS011;38508;53.158;6.614;2022-12-18T14:09:58;12.48;;;6.25;;
52614;SDS011;38508;53.158;6.614;2022-12-18T14:12:26;14.35;;;7.63;;
52614;SDS011;38508;53.158;6.614;2022-12-18T14:15:20;12.88;;;6.78;;
52614;SDS011;38508;53.158;6.614;2022-12-18T14:17:57;12.07;;;5.95;;
52614;SDS011;38508;53.158;6.614;2022-12-18T14:20:25;12.07;;;5.78;;
52614;SDS011;38508;53.158;6.614;2022-12-18T14:22:53;11.77;;;5.95;;
52614;SDS011;38508;53.158;6.614;2022-12-18T14:25:22;13.23;;;6.03;;
52614;SDS011;38508;53.158;6.614;2022-12-18T14:27:52;11.65;;;5.85;;
52614;SDS011;38508;53.158;6.614;2022-12-18T14:30:38;13.35;;;6.22;;
52614;SDS011;38508;53.158;6.614;2022-12-18T14:35:34;12.02;;;6.25;;
52614;SDS011;38508;53.158;6.614;2022-12-18T14:40:43;14.07;;;6.72;;
52614;SDS011;38508;53.158;6.614;2022-12-18T14:43:12;15.90;;;6.63;;
52614;SDS011;38508;53.158;6.614;2022-12-18T14:45:44;15.10;;;6.78;;
52614;SDS011;38508;53.158;6.614;2022-12-18T14:51:00;15.00;;;7.13;;
52614;SDS011;38508;53.158;6.614;2022-12-18T14:56:27;15.93;;;7.50;;
52614;SDS011;38508;53.158;6.614;2022-12-18T14:58:57;16.48;;;7.47;;
52614;SDS011;38508;53.158;6.614;2022-12-18T15:01:35;14.77;;;6.60;;
52614;SDS011;38508;53.158;6.614;2022-12-18T15:04:03;14.65;;;6.93;;
52614;SDS011;38508;53.158;6.614;2022-12-18T15:06:37;16.35;;;7.38;;
52614;SDS011;38508;53.158;6.614;2022-12-18T15:09:20;14.88;;;7.63;;
52614;SDS011;38508;53.158;6.614;2022-12-18T15:11:54;16.75;;;7.90;;
52614;SDS011;38508;53.158;6.614;2022-12-18T15:14:23;17.23;;;7.47;;
52614;SDS011;38508;53.158;6.614;2022-12-18T15:17:19;18.75;;;8.23;;
52614;SDS011;38508;53.158;6.614;2022-12-18T15:19:47;17.00;;;7.68;;
52614;SDS011;38508;53.158;6.614;2022-12-18T15:22:22;14.38;;;7.32;;
52614;SDS011;38508;53.158;6.614;2022-12-18T15:24:49;18.08;;;8.27;;
52614;SDS011;38508;53.158;6.614;2022-12-18T15:27:20;15.18;;;7.72;;
52614;SDS011;38508;53.158;6.614;2022-12-18T15:29:59;16.98;;;8.57;;
52614;SDS011;38508;53.158;6.614;2022-12-18T15:32:25;16.25;;;8.15;;
52614;SDS011;38508;53.158;6.614;2022-12-18T15:35:01;16.75;;;7.97;;
52614;SDS011;38508;53.158;6.614;2022-12-18T15:37:33;15.38;;;8.20;;
52614;SDS011;38508;53.158;6.614;2022-12-18T15:39:58;17.33;;;8.77;;
52614;SDS011;38508;53.158;6.614;2022-12-18T15:42:24;14.80;;;7.75;;
52614;SDS011;38508;53.158;6.614;2022-12-18T15:45:11;19.02;;;8.52;;
52614;SDS011;38508;53.158;6.614;2022-12-18T15:47:37;15.52;;;7.47;;
52614;SDS011;38508;53.158;6.614;2022-12-18T15:50:04;14.77;;;7.60;;
52614;SDS011;38508;53.158;6.614;2022-12-18T15:52:32;15.55;;;8.00;;
52614;SDS011;38508;53.158;6.614;2022-12-18T15:55:05;18.02;;;8.75;;
52614;SDS011;38508;53.158;6.614;2022-12-18T15:58:00;19.40;;;8.18;;
52614;SDS011;38508;53.158;6.614;2022-12-18T16:00:26;17.02;;;8.25;;
52614;SDS011;38508;53.158;6.614;2022-12-18T16:02:52;19.75;;;7.95;;
52614;SDS011;38508;53.158;6.614;2022-12-18T16:05:18;13.93;;;7.70;;
52614;SDS011;38508;53.158;6.614;2022-12-18T16:07:45;18.02;;;8.52;;
52614;SDS011;38508;53.158;6.614;2022-12-18T16:10:14;16.23;;;8.30;;
52614;SDS011;38508;53.158;6.614;2022-12-18T16:12:40;16.88;;;8.82;;
52614;SDS011;38508;53.158;6.614;2022-12-18T16:15:07;18.23;;;8.48;;
52614;SDS011;38508;53.158;6.614;2022-12-18T16:17:35;20.17;;;9.65;;
52614;SDS011;38508;53.158;6.614;2022-12-18T16:20:01;19.90;;;8.88;;
52614;SDS011;38508;53.158;6.614;2022-12-18T16:22:27;19.25;;;9.68;;
52614;SDS011;38508;53.158;6.614;2022-12-18T16:24:55;17.25;;;7.75;;
52614;SDS011;38508;53.158;6.614;2022-12-18T16:27:22;20.25;;;8.50;;
52614;SDS011;38508;53.158;6.614;2022-12-18T16:29:48;17.08;;;8.35;;
52614;SDS011;38508;53.158;6.614;2022-12-18T16:32:15;20.25;;;9.73;;
52614;SDS011;38508;53.158;6.614;2022-12-18T16:34:43;19.15;;;9.07;;
52614;SDS011;38508;53.158;6.614;2022-12-18T16:37:10;17.77;;;8.63;;
52614;SDS011;38508;53.158;6.614;2022-12-18T16:39:37;20.85;;;10.55;;
52614;SDS011;38508;53.158;6.614;2022-12-18T16:42:05;17.73;;;8.73;;
52614;SDS011;38508;53.158;6.614;2022-12-18T16:44:35;19.80;;;8.98;;
52614;SDS011;38508;53.158;6.614;2022-12-18T16:47:00;19.00;;;9.00;;
52614;SDS011;38508;53.158;6.614;2022-12-18T16:49:27;19.13;;;9.00;;
52614;SDS011;38508;53.158;6.614;2022-12-18T16:51:53;17.85;;;8.40;;
52614;SDS011;38508;53.158;6.614;2022-12-18T16:54:19;16.42;;;8.52;;